Time;durP1;ratioP1;P1;durP2;ratioP2;P2;SDS_P1;SDS_P2;PMS_P1;PMS_P2;Temp;Humidity;BMP_temperature;BMP_pressure;BME280_temperature;BME280_humidity;BME280_pressure;Samples;Min_cycle;Max_cycle;Signal;HPM_P1;HPM_P2
2023/11/29 00:00:20;;;;;;;3.55;3.25;;;-0.80;99.90;;;;;;5073041;28;20042;-40
2023/11/29 00:02:46;;;;;;;1.77;1.67;;;-0.80;99.90;;;;;;5070380;28;20409;-37
2023/11/29 00:05:12;;;;;;;5.13;4.63;;;-0.90;99.90;;;;;;5075947;28;20027;-39
2023/11/29 00:07:41;;;;;;;5.50;5.00;;;-1.00;99.90;;;;;;5073298;28;20028;-38
2023/11/29 00:10:07;;;;;;;4.40;3.65;;;-1.00;99.90;;;;;;5076779;28;20070;-38
2023/11/29 00:12:33;;;;;;;3.95;3.55;;;-1.00;99.90;;;;;;5076142;28;20040;-40
2023/11/29 00:14:58;;;;;;;5.70;3.53;;;-1.00;99.90;;;;;;5074492;28;20038;-40
2023/11/29 00:17:24;;;;;;;5.25;4.45;;;-1.10;99.90;;;;;;5077067;28;20505;-40
2023/11/29 00:19:49;;;;;;;5.28;4.30;;;-1.10;99.90;;;;;;5074356;28;20045;-41
2023/11/29 00:22:15;;;;;;;6.75;4.47;;;-1.20;99.90;;;;;;5073354;28;20036;-39
2023/11/29 00:24:48;;;;;;;7.53;4.43;;;-1.20;99.90;;;;;;5073934;28;20397;-40
2023/11/29 00:27:17;;;;;;;5.55;4.80;;;-1.20;99.90;;;;;;5074462;28;20035;-42
2023/11/29 00:29:43;;;;;;;4.78;4.28;;;-1.20;99.90;;;;;;5077302;28;20024;-42
2023/11/29 00:32:09;;;;;;;7.78;4.32;;;-1.20;99.90;;;;;;5075774;28;20118;-41
2023/11/29 00:34:34;;;;;;;8.75;5.10;;;-1.20;99.90;;;;;;5073363;28;20119;-36
2023/11/29 00:37:01;;;;;;;7.60;5.38;;;-1.10;99.90;;;;;;5073064;28;20060;-31
2023/11/29 00:39:27;;;;;;;4.55;4.13;;;-1.10;99.90;;;;;;5077655;28;20082;-31
2023/11/29 00:41:52;;;;;;;5.85;4.57;;;-1.10;99.90;;;;;;5078676;28;20028;-31
2023/11/29 00:44:18;;;;;;;5.82;4.93;;;-1.20;99.90;;;;;;5077275;28;20024;-31
2023/11/29 00:46:44;;;;;;;5.30;4.45;;;-1.20;99.90;;;;;;5077656;28;20043;-31
2023/11/29 00:49:09;;;;;;;4.47;3.47;;;-1.20;99.90;;;;;;5076417;28;20028;-31
2023/11/29 00:51:35;;;;;;;4.63;3.85;;;-1.20;99.90;;;;;;5083408;28;20470;-33
2023/11/29 00:54:00;;;;;;;4.82;4.32;;;-1.20;99.90;;;;;;5076135;28;20482;-30
2023/11/29 00:56:26;;;;;;;5.40;4.45;;;-1.20;99.90;;;;;;5075838;28;20036;-31
2023/11/29 00:58:52;;;;;;;4.45;4.10;;;-1.20;99.90;;;;;;5073230;28;20082;-35
2023/11/29 01:01:18;;;;;;;5.22;4.15;;;-1.20;99.90;;;;;;5076247;28;20113;-31
2023/11/29 01:03:43;;;;;;;5.72;3.97;;;-1.20;99.90;;;;;;5077634;28;20071;-30
2023/11/29 01:06:09;;;;;;;5.18;4.07;;;-1.20;99.90;;;;;;5079000;28;20119;-31
2023/11/29 01:08:35;;;;;;;7.57;5.28;;;-1.20;99.90;;;;;;5078646;28;20035;-33
2023/11/29 01:11:01;;;;;;;7.20;4.30;;;-1.10;99.90;;;;;;5084651;28;20024;-31
2023/11/29 01:13:28;;;;;;;5.70;4.68;;;-1.10;99.90;;;;;;5080801;28;20484;-30
2023/11/29 01:15:53;;;;;;;6.70;5.30;;;-1.10;99.90;;;;;;5076054;28;20469;-32
2023/11/29 01:18:20;;;;;;;5.15;4.65;;;-1.10;99.90;;;;;;5079336;28;20059;-31
2023/11/29 01:20:46;;;;;;;6.53;5.13;;;-1.10;99.90;;;;;;5074236;28;20056;-30
2023/11/29 01:23:12;;;;;;;7.85;5.28;;;-1.20;99.90;;;;;;5077043;28;20036;-30
2023/11/29 01:25:38;;;;;;;6.80;6.07;;;-1.20;99.90;;;;;;5075125;28;20085;-31
2023/11/29 01:28:05;;;;;;;7.20;5.47;;;-1.20;99.90;;;;;;5079314;28;20030;-31
2023/11/29 01:30:34;;;;;;;6.13;4.63;;;-1.10;99.90;;;;;;5078106;28;20031;-33
2023/11/29 01:32:59;;;;;;;;;;;-1.20;99.90;;;;;;5078480;28;20738;-32
2023/11/29 01:35:25;;;;;;;8.60;5.22;;;-1.20;99.90;;;;;;5074193;28;19908;-31
2023/11/29 01:37:51;;;;;;;6.65;5.15;;;-1.10;99.90;;;;;;5075791;28;20116;-30
2023/11/29 01:40:16;;;;;;;6.38;4.28;;;-1.20;99.90;;;;;;5073882;28;20028;-33
2023/11/29 01:42:42;;;;;;;5.22;4.38;;;-1.20;99.90;;;;;;5075834;28;20054;-30
2023/11/29 01:45:08;;;;;;;9.88;6.15;;;-1.20;99.90;;;;;;5077372;28;20037;-31
2023/11/29 01:47:37;;;;;;;6.47;4.30;;;-1.20;99.90;;;;;;5076257;28;20032;-31
2023/11/29 01:50:07;;;;;;;7.53;5.15;;;-1.20;99.90;;;;;;5073204;28;20389;-33
2023/11/29 01:52:34;;;;;;;7.53;5.40;;;-1.20;99.90;;;;;;5081683;28;20063;-31
2023/11/29 01:55:05;;;;;;;7.30;4.93;;;-1.20;99.90;;;;;;5076237;28;20462;-33
2023/11/29 01:57:31;;;;;;;6.95;4.75;;;-1.20;99.90;;;;;;5080556;28;20039;-34
2023/11/29 01:59:57;;;;;;;12.65;8.10;;;-1.20;99.90;;;;;;5080240;28;20035;-31
2023/11/29 02:02:23;;;;;;;8.23;5.53;;;-1.20;99.90;;;;;;5078090;28;20473;-30
2023/11/29 02:04:50;;;;;;;9.93;6.32;;;-1.30;99.90;;;;;;5078225;28;20108;-34
2023/11/29 02:07:16;;;;;;;7.53;4.95;;;-1.20;99.90;;;;;;5080466;28;20024;-35
2023/11/29 02:09:42;;;;;;;7.28;5.28;;;-1.20;99.90;;;;;;5077882;28;20035;-32
2023/11/29 02:12:09;;;;;;;5.53;5.00;;;-1.10;99.90;;;;;;5079248;28;20035;-31
2023/11/29 02:14:41;;;;;;;6.80;5.40;;;-1.10;99.90;;;;;;5080383;28;20182;-31
2023/11/29 02:17:07;;;;;;;6.05;5.22;;;-1.10;99.90;;;;;;5076959;28;20044;-31
2023/11/29 02:19:33;;;;;;;5.85;4.70;;;-1.00;99.90;;;;;;5078963;28;20515;-31
2023/11/29 02:21:59;;;;;;;5.85;3.97;;;-1.10;99.90;;;;;;5081788;28;20059;-35
2023/11/29 02:24:29;;;;;;;6.53;5.68;;;-1.10;99.90;;;;;;5073946;28;20027;-30
2023/11/29 02:26:55;;;;;;;7.10;5.88;;;-1.10;99.90;;;;;;5080183;28;20031;-31
2023/11/29 02:29:21;;;;;;;6.90;4.20;;;-1.00;99.90;;;;;;5077997;28;20021;-31
2023/11/29 02:31:46;;;;;;;5.88;4.68;;;-1.00;99.90;;;;;;5078741;28;20403;-30
2023/11/29 02:34:12;;;;;;;6.75;4.45;;;-1.00;99.90;;;;;;5077314;28;20832;-30
2023/11/29 02:36:37;;;;;;;6.13;5.38;;;-1.00;99.90;;;;;;5075149;28;20091;-30
2023/11/29 02:39:04;;;;;;;8.38;5.60;;;-1.00;99.90;;;;;;5073719;28;20035;-31
2023/11/29 02:41:29;;;;;;;9.00;5.30;;;-1.00;99.90;;;;;;5075986;28;20548;-35
2023/11/29 02:43:55;;;;;;;6.55;5.15;;;-1.00;99.90;;;;;;5074619;28;20024;-32
2023/11/29 02:46:22;;;;;;;5.55;5.03;;;-1.00;99.90;;;;;;5076814;28;20024;-35
2023/11/29 02:48:48;;;;;;;7.13;4.82;;;-1.00;99.90;;;;;;5073916;28;20088;-31
2023/11/29 02:51:14;;;;;;;6.65;5.10;;;-1.00;99.90;;;;;;5075612;28;20023;-30
2023/11/29 02:53:40;;;;;;;9.00;6.40;;;-1.00;99.90;;;;;;5077209;28;20032;-33
2023/11/29 02:56:09;;;;;;;9.10;7.07;;;-1.00;99.90;;;;;;5075994;28;20386;-31
2023/11/29 02:58:35;;;;;;;8.50;6.30;;;-1.00;99.90;;;;;;5073588;28;20139;-38
2023/11/29 03:01:00;;;;;;;8.88;7.07;;;-0.90;99.90;;;;;;5067971;27;20111;-35
2023/11/29 03:03:26;;;;;;;10.95;6.50;;;-0.90;99.90;;;;;;5076969;28;20483;-40
2023/11/29 03:05:51;;;;;;;9.95;5.53;;;-0.90;99.90;;;;;;5075067;28;20165;-41
2023/11/29 03:08:18;;;;;;;11.30;5.72;;;-1.00;99.90;;;;;;5073328;28;20055;-34
2023/11/29 03:10:44;;;;;;;8.93;5.78;;;-1.00;99.90;;;;;;5071134;28;20055;-43
2023/11/29 03:13:09;;;;;;;9.13;6.32;;;-1.00;99.90;;;;;;5070176;28;20067;-40
2023/11/29 03:15:35;;;;;;;8.40;6.25;;;-1.00;99.90;;;;;;5070389;28;20024;-41
2023/11/29 03:18:00;;;;;;;9.80;5.63;;;-1.00;99.90;;;;;;5074977;28;20024;-40
2023/11/29 03:20:26;;;;;;;11.70;5.82;;;-1.10;99.90;;;;;;5073296;28;20036;-40
2023/11/29 03:22:52;;;;;;;7.65;5.63;;;-1.10;99.90;;;;;;5072601;28;20040;-42
2023/11/29 03:25:18;;;;;;;11.13;7.10;;;-1.20;99.90;;;;;;5067390;28;20033;-41
2023/11/29 03:27:44;;;;;;;9.27;6.22;;;-1.20;99.90;;;;;;5070035;28;20085;-41
2023/11/29 03:30:10;;;;;;;8.40;5.95;;;-1.20;99.90;;;;;;5070741;28;20033;-42
2023/11/29 03:32:36;;;;;;;10.40;6.57;;;-1.30;99.90;;;;;;5071793;28;20413;-42
2023/11/29 03:35:02;;;;;;;9.02;5.80;;;-1.20;99.90;;;;;;5075999;28;20036;-40
2023/11/29 03:37:28;;;;;;;7.93;5.55;;;-1.30;99.90;;;;;;5069703;28;20111;-40
2023/11/29 03:39:53;;;;;;;10.65;7.55;;;-1.30;99.90;;;;;;5070560;28;20032;-38
2023/11/29 03:42:19;;;;;;;7.90;6.57;;;-1.40;99.90;;;;;;5071484;28;20065;-40
2023/11/29 03:44:45;;;;;;;13.45;8.10;;;-1.40;99.90;;;;;;5072249;28;20035;-41
2023/11/29 03:47:10;;;;;;;6.63;5.28;;;-1.40;99.90;;;;;;5069655;28;20073;-37
2023/11/29 03:49:36;;;;;;;8.68;6.07;;;-1.40;99.90;;;;;;5069444;28;20027;-41
2023/11/29 03:52:02;;;;;;;11.27;7.60;;;-1.40;99.90;;;;;;5071962;28;20033;-42
2023/11/29 03:54:28;;;;;;;8.05;5.80;;;-1.50;99.90;;;;;;5073075;28;20572;-38
2023/11/29 03:56:53;;;;;;;9.13;5.68;;;-1.40;99.90;;;;;;5073789;28;20111;-40
2023/11/29 03:59:19;;;;;;;8.70;5.88;;;-1.50;99.90;;;;;;5070979;28;20033;-40
2023/11/29 04:01:44;;;;;;;7.05;5.15;;;-1.50;99.90;;;;;;5065808;28;20044;-41
2023/11/29 04:04:10;;;;;;;10.35;6.07;;;-1.50;99.90;;;;;;5073351;28;20086;-38
2023/11/29 04:06:35;;;;;;;8.75;5.70;;;-1.60;99.90;;;;;;5070816;28;20021;-34
2023/11/29 04:09:02;;;;;;;10.20;6.32;;;-1.60;99.90;;;;;;5070269;28;20032;-32
2023/11/29 04:11:28;;;;;;;9.50;6.43;;;-1.60;99.90;;;;;;5067506;28;20024;-33
2023/11/29 04:13:54;;;;;;;10.25;5.57;;;-1.60;99.90;;;;;;5073982;28;20082;-33
2023/11/29 04:16:25;;;;;;;10.13;6.22;;;-1.60;99.90;;;;;;5071536;28;20416;-31
2023/11/29 04:18:54;;;;;;;6.70;5.13;;;-1.60;99.90;;;;;;5072462;28;20029;-33
2023/11/29 04:21:25;;;;;;;7.72;4.65;;;-1.70;99.90;;;;;;5070754;28;20040;-33
2023/11/29 04:23:51;;;;;;;8.38;5.68;;;-1.60;99.90;;;;;;5072054;28;20028;-34
2023/11/29 04:26:32;;;;;;;10.43;4.70;;;-1.60;99.90;;;;;;5074744;28;20027;-34
2023/11/29 04:29:00;;;;;;;7.03;5.45;;;-1.70;99.90;;;;;;5069454;28;20024;-36
2023/11/29 04:31:26;;;;;;;7.55;4.13;;;-1.60;99.90;;;;;;5068604;28;20044;-31
2023/11/29 04:33:52;;;;;;;7.63;4.82;;;-1.70;99.90;;;;;;5072178;28;20035;-34
2023/11/29 04:36:18;;;;;;;5.75;4.38;;;-1.70;99.90;;;;;;5072226;28;20473;-32
2023/11/29 04:38:45;;;;;;;8.23;4.97;;;-1.60;99.90;;;;;;5069789;28;20025;-32
2023/11/29 04:41:11;;;;;;;7.57;5.00;;;-1.60;99.90;;;;;;5071914;28;20029;-33
2023/11/29 04:43:37;;;;;;;9.32;5.72;;;-1.70;99.90;;;;;;5073614;28;20031;-31
2023/11/29 04:46:03;;;;;;;5.95;4.60;;;-1.70;99.90;;;;;;5071540;28;20462;-34
2023/11/29 04:48:30;;;;;;;6.68;5.00;;;-1.80;99.90;;;;;;5075828;28;20363;-36
2023/11/29 04:50:56;;;;;;;2.70;2.45;;;-1.80;99.90;;;;;;5073735;28;20028;-32
2023/11/29 04:53:22;;;;;;;6.20;5.00;;;-1.80;99.90;;;;;;5074254;28;20540;-31
2023/11/29 04:55:48;;;;;;;9.27;5.53;;;-1.90;99.90;;;;;;5073838;28;20033;-34
2023/11/29 04:58:15;;;;;;;11.52;6.07;;;-1.80;99.90;;;;;;5073770;28;20499;-34
2023/11/29 05:00:40;;;;;;;6.88;4.90;;;-1.90;99.90;;;;;;5085283;28;20037;-33
2023/11/29 05:03:06;;;;;;;8.68;6.00;;;-2.00;99.90;;;;;;5071367;28;20024;-32
2023/11/29 05:05:32;;;;;;;10.60;5.63;;;-1.90;99.90;;;;;;5070958;28;20056;-33
2023/11/29 05:07:57;;;;;;;6.07;3.95;;;-1.90;99.90;;;;;;5072416;28;20034;-32
2023/11/29 05:10:24;;;;;;;8.35;4.57;;;-1.90;99.90;;;;;;5070673;28;20048;-33
2023/11/29 05:12:49;;;;;;;5.50;4.00;;;-1.90;99.90;;;;;;5076424;28;20558;-32
2023/11/29 05:15:15;;;;;;;10.63;5.30;;;-1.90;99.90;;;;;;5073529;28;20044;-34
2023/11/29 05:17:41;;;;;;;8.18;5.47;;;-1.90;99.90;;;;;;5071790;28;20024;-32
2023/11/29 05:20:09;;;;;;;4.93;3.88;;;-1.90;99.90;;;;;;5073307;28;20047;-32
2023/11/29 05:22:35;;;;;;;5.78;3.75;;;-1.90;99.90;;;;;;5070220;28;20051;-32
2023/11/29 05:25:01;;;;;;;8.05;5.43;;;-1.90;99.90;;;;;;5082814;28;20051;-33
2023/11/29 05:27:28;;;;;;;4.35;3.63;;;-1.90;99.90;;;;;;5070592;28;20485;-34
2023/11/29 05:29:54;;;;;;;7.65;4.38;;;-1.90;99.90;;;;;;5075345;28;20074;-33
2023/11/29 05:32:19;;;;;;;6.82;4.75;;;-1.90;99.90;;;;;;5067410;28;20056;-36
2023/11/29 05:34:45;;;;;;;5.38;3.85;;;-1.90;99.90;;;;;;5069114;28;20135;-33
2023/11/29 05:37:11;;;;;;;11.80;4.63;;;-1.90;99.90;;;;;;5074127;28;20103;-32
2023/11/29 05:39:37;;;;;;;9.00;4.18;;;-1.90;99.90;;;;;;5076174;28;20038;-33
2023/11/29 05:42:03;;;;;;;3.10;2.83;;;-1.90;99.90;;;;;;5071646;28;20393;-35
2023/11/29 05:44:32;;;;;;;7.53;4.75;;;-1.80;99.90;;;;;;5071372;28;22094;-37
2023/11/29 05:46:59;;;;;;;6.63;4.32;;;-1.80;99.90;;;;;;5075760;28;20032;-34
2023/11/29 05:49:25;;;;;;;6.35;4.80;;;-1.80;99.90;;;;;;5076333;28;20020;-32
2023/11/29 05:51:51;;;;;;;8.68;5.22;;;-1.80;99.90;;;;;;5076833;28;20515;-33
2023/11/29 05:54:16;;;;;;;8.68;4.63;;;-1.90;99.90;;;;;;5078156;28;20028;-35
2023/11/29 05:56:42;;;;;;;4.70;3.97;;;-1.90;99.90;;;;;;5072080;28;20508;-34
2023/11/29 05:59:08;;;;;;;6.47;4.75;;;-1.80;99.90;;;;;;5071585;28;20114;-35
2023/11/29 06:01:33;;;;;;;8.98;5.20;;;-1.90;99.90;;;;;;5074664;28;20083;-33
2023/11/29 06:04:02;;;;;;;6.40;3.33;;;-1.90;99.90;;;;;;5067873;28;20189;-33
2023/11/29 06:06:28;;;;;;;;;;;-1.90;99.90;;;;;;5075394;28;20032;-32
2023/11/29 06:08:54;;;;;;;10.82;5.53;;;-1.90;99.90;;;;;;5074932;28;20281;-33
2023/11/29 06:11:19;;;;;;;5.70;4.97;;;-1.90;99.90;;;;;;5072124;28;20484;-33
2023/11/29 06:13:45;;;;;;;7.57;4.40;;;-1.90;99.90;;;;;;5069387;28;20551;-34
2023/11/29 06:16:15;;;;;;;9.77;4.90;;;-1.90;99.90;;;;;;5070623;28;20712;-33
2023/11/29 06:18:41;;;;;;;9.55;5.50;;;-2.00;99.90;;;;;;5067774;28;20511;-33
2023/11/29 06:21:07;;;;;;;6.05;4.35;;;-2.00;99.90;;;;;;5068494;28;20036;-35
2023/11/29 06:23:33;;;;;;;9.02;4.97;;;-2.00;99.90;;;;;;5066506;28;20489;-32
2023/11/29 06:25:58;;;;;;;4.82;4.00;;;-1.90;99.90;;;;;;5071167;28;20031;-35
2023/11/29 06:28:28;;;;;;;5.88;5.05;;;-1.90;99.90;;;;;;5068261;28;20469;-36
2023/11/29 06:30:54;;;;;;;8.90;5.10;;;-1.80;99.90;;;;;;5074056;27;20024;-38
2023/11/29 06:33:20;;;;;;;7.03;5.07;;;-1.80;99.90;;;;;;5092010;27;20035;-33
2023/11/29 06:35:46;;;;;;;9.10;6.55;;;-1.90;99.90;;;;;;5071638;28;20032;-33
2023/11/29 06:38:12;;;;;;;9.82;4.88;;;-1.90;99.90;;;;;;5069675;28;20099;-32
2023/11/29 06:40:37;;;;;;;10.48;6.18;;;-1.90;99.90;;;;;;5077621;28;20054;-36
2023/11/29 06:43:05;;;;;;;8.02;5.28;;;-2.00;99.90;;;;;;5075874;28;20073;-32
2023/11/29 06:45:33;;;;;;;9.23;5.55;;;-2.00;99.90;;;;;;5076838;28;20032;-33
2023/11/29 06:47:59;;;;;;;7.95;5.50;;;-2.10;99.90;;;;;;5081258;28;20407;-34
2023/11/29 06:50:25;;;;;;;11.43;6.45;;;-2.00;99.90;;;;;;5081737;28;20081;-32
2023/11/29 06:52:50;;;;;;;9.00;6.15;;;-2.00;99.90;;;;;;5076755;28;20036;-34
2023/11/29 06:55:19;;;;;;;12.23;6.65;;;-2.10;99.90;;;;;;5073837;28;20039;-32
2023/11/29 06:57:45;;;;;;;13.02;7.72;;;-2.20;99.90;;;;;;5080427;28;20032;-31
2023/11/29 07:00:11;;;;;;;11.40;7.20;;;-2.20;99.90;;;;;;5080803;28;20031;-32
2023/11/29 07:02:39;;;;;;;11.13;6.35;;;-2.10;99.90;;;;;;5075275;28;20085;-32
2023/11/29 07:05:09;;;;;;;11.70;6.47;;;-2.10;99.90;;;;;;5060396;28;20027;-33
2023/11/29 07:07:38;;;;;;;6.70;4.15;;;-2.10;99.90;;;;;;5078017;28;20035;-33
2023/11/29 07:10:05;;;;;;;13.38;6.40;;;-2.00;99.90;;;;;;5091552;28;20028;-32
2023/11/29 07:12:30;;;;;;;10.45;6.43;;;-2.10;99.90;;;;;;5073074;28;20052;-35
2023/11/29 07:14:59;;;;;;;8.30;5.40;;;-2.00;99.90;;;;;;5073067;28;20063;-32
2023/11/29 07:17:25;;;;;;;7.88;5.30;;;-2.00;99.90;;;;;;5076641;28;20418;-31
2023/11/29 07:19:50;;;;;;;9.73;5.18;;;-2.10;99.90;;;;;;5078696;28;20042;-31
2023/11/29 07:22:16;;;;;;;8.00;4.40;;;-2.00;99.90;;;;;;5076876;28;20032;-34
2023/11/29 07:24:48;;;;;;;11.27;5.88;;;-2.00;99.90;;;;;;5075313;28;20045;-32
2023/11/29 07:27:14;;;;;;;11.05;6.22;;;-2.10;99.90;;;;;;5074370;28;20027;-31
2023/11/29 07:29:39;;;;;;;7.00;6.03;;;-2.10;99.90;;;;;;5073907;28;20016;-35
2023/11/29 07:32:05;;;;;;;9.05;5.03;;;-2.20;99.90;;;;;;5076660;28;20036;-33
2023/11/29 07:34:31;;;;;;;15.75;6.47;;;-2.10;99.90;;;;;;5076109;28;20106;-33
2023/11/29 07:36:57;;;;;;;9.23;5.70;;;-2.10;99.90;;;;;;5079671;28;20035;-40
2023/11/29 07:39:26;;;;;;;9.48;6.53;;;-2.10;99.90;;;;;;5104991;28;20082;-39
2023/11/29 07:41:53;;;;;;;7.65;5.18;;;-2.00;99.90;;;;;;5078800;28;20047;-39
2023/11/29 07:44:20;;;;;;;8.40;5.10;;;-1.90;99.90;;;;;;5074684;28;20059;-36
2023/11/29 07:46:47;;;;;;;10.63;6.13;;;-1.90;99.90;;;;;;5062386;28;20508;-40
2023/11/29 07:49:13;;;;;;;10.30;6.93;;;-1.80;99.90;;;;;;5109241;28;20035;-36
2023/11/29 07:51:45;;;;;;;8.75;5.88;;;-1.70;99.90;;;;;;5075869;28;20753;-40
2023/11/29 07:54:11;;;;;;;8.65;6.35;;;-1.70;99.90;;;;;;5077681;28;20012;-38
2023/11/29 07:56:37;;;;;;;11.10;6.18;;;-1.70;99.90;;;;;;5081977;28;20048;-40
2023/11/29 07:59:06;;;;;;;14.77;7.10;;;-1.70;99.90;;;;;;5078125;28;20488;-40
2023/11/29 08:01:31;;;;;;;8.60;5.68;;;-1.60;99.90;;;;;;5077418;28;20089;-38
2023/11/29 08:03:57;;;;;;;8.93;5.07;;;-1.50;99.90;;;;;;5074206;28;20028;-39
2023/11/29 08:06:23;;;;;;;9.52;5.40;;;-1.50;99.90;;;;;;5073649;28;20028;-40
2023/11/29 08:08:49;;;;;;;9.55;5.35;;;-1.50;99.90;;;;;;5076854;28;20029;-39
2023/11/29 08:11:15;;;;;;;8.70;5.70;;;-1.40;99.90;;;;;;5073694;28;20034;-35
2023/11/29 08:13:41;;;;;;;9.38;6.30;;;-1.40;99.90;;;;;;5076958;28;20024;-40
2023/11/29 08:16:07;;;;;;;9.38;4.85;;;-1.30;99.90;;;;;;5079995;28;20374;-39
2023/11/29 08:18:34;;;;;;;11.05;5.82;;;-1.30;99.90;;;;;;5088551;28;20034;-38
2023/11/29 08:20:59;;;;;;;5.18;4.07;;;-1.30;99.90;;;;;;5079765;28;20485;-39
2023/11/29 08:23:25;;;;;;;8.40;6.50;;;-1.20;99.90;;;;;;5080352;28;20061;-39
2023/11/29 08:25:51;;;;;;;9.18;5.20;;;-1.20;99.90;;;;;;5078893;28;20025;-40
2023/11/29 08:28:18;;;;;;;8.30;5.05;;;-1.10;99.90;;;;;;5082578;28;20055;-36
2023/11/29 08:30:44;;;;;;;8.65;5.35;;;-1.10;99.90;;;;;;5072618;28;20059;-39
2023/11/29 08:33:10;;;;;;;8.98;4.85;;;-1.00;99.90;;;;;;5083328;28;20044;-39
2023/11/29 08:35:36;;;;;;;8.55;4.65;;;-1.00;99.90;;;;;;5075620;28;20034;-36
2023/11/29 08:38:02;;;;;;;6.57;3.83;;;-0.90;99.90;;;;;;5077963;28;20043;-37
2023/11/29 08:40:27;;;;;;;6.18;4.15;;;-0.90;99.90;;;;;;5082558;28;20032;-38
2023/11/29 08:42:53;;;;;;;5.32;3.75;;;-0.80;99.90;;;;;;5086923;28;20024;-40
2023/11/29 08:45:19;;;;;;;4.75;3.75;;;-0.70;99.90;;;;;;5081452;28;20036;-39
2023/11/29 08:47:46;;;;;;;3.95;3.53;;;-0.70;99.90;;;;;;5088631;28;20020;-42
2023/11/29 08:50:11;;;;;;;5.15;4.40;;;-0.60;99.90;;;;;;5084209;28;20683;-41
2023/11/29 08:52:37;;;;;;;4.47;3.85;;;-0.60;99.90;;;;;;5082742;28;20055;-33
2023/11/29 08:55:04;;;;;;;3.55;3.00;;;-0.60;99.90;;;;;;5076017;28;20043;-40
2023/11/29 08:57:31;;;;;;;7.07;4.68;;;-0.50;99.90;;;;;;5080111;28;20115;-36
2023/11/29 08:59:57;;;;;;;3.30;2.83;;;-0.50;99.90;;;;;;5085383;28;20039;-39
2023/11/29 09:02:23;;;;;;;4.30;3.60;;;-0.40;99.90;;;;;;5080385;28;20441;-42
2023/11/29 09:04:50;;;;;;;5.72;3.38;;;-0.40;99.90;;;;;;5079926;28;20032;-41
2023/11/29 09:07:17;;;;;;;4.18;3.38;;;-0.30;99.90;;;;;;5083427;28;20024;-34
2023/11/29 09:09:43;;;;;;;5.28;3.40;;;-0.30;99.90;;;;;;5075641;28;20021;-41
2023/11/29 09:12:14;;;;;;;3.58;3.22;;;-0.20;99.90;;;;;;5077968;28;20119;-36
2023/11/29 09:14:40;;;;;;;6.07;2.70;;;-0.10;99.90;;;;;;5084469;28;20539;-41
2023/11/29 09:17:06;;;;;;;3.38;3.03;;;-0.10;99.90;;;;;;5080994;28;20025;-40
2023/11/29 09:19:32;;;;;;;5.18;3.88;;;0.00;99.90;;;;;;5081420;28;20029;-36
2023/11/29 09:21:58;;;;;;;3.63;2.83;;;0.00;99.90;;;;;;5078311;28;20063;-38
2023/11/29 09:24:24;;;;;;;3.47;3.10;;;0.00;99.90;;;;;;5083691;28;20409;-41
2023/11/29 09:26:51;;;;;;;3.78;3.13;;;0.10;99.90;;;;;;5084985;28;20024;-39
2023/11/29 09:29:16;;;;;;;4.78;3.35;;;0.10;99.90;;;;;;5075925;28;20526;-37
2023/11/29 09:31:42;;;;;;;3.97;2.58;;;0.20;99.90;;;;;;5082376;28;20082;-40
2023/11/29 09:34:08;;;;;;;4.43;3.20;;;0.20;99.90;;;;;;5074635;28;20077;-41
2023/11/29 09:36:33;;;;;;;3.20;2.90;;;0.20;99.90;;;;;;5077673;28;20059;-41
2023/11/29 09:39:06;;;;;;;3.53;2.72;;;0.30;99.90;;;;;;5087077;28;20288;-42
2023/11/29 09:41:31;;;;;;;3.42;2.78;;;0.30;99.90;;;;;;5082128;28;20078;-36
2023/11/29 09:43:57;;;;;;;3.78;2.78;;;0.40;99.90;;;;;;5078430;28;20616;-40
2023/11/29 09:46:23;;;;;;;3.33;2.83;;;0.50;99.90;;;;;;5079210;28;20028;-42
2023/11/29 09:48:48;;;;;;;3.60;3.30;;;0.40;99.90;;;;;;5075481;28;20024;-41
2023/11/29 09:51:14;;;;;;;7.65;4.25;;;0.40;99.90;;;;;;5082568;28;20103;-42
2023/11/29 09:53:40;;;;;;;4.25;3.30;;;0.40;99.90;;;;;;5080378;28;20035;-36
2023/11/29 09:56:06;;;;;;;2.85;2.65;;;0.60;99.90;;;;;;5078807;28;20401;-40
2023/11/29 09:58:33;;;;;;;4.57;3.17;;;0.70;99.90;;;;;;5084597;28;20043;-38
2023/11/29 10:00:58;;;;;;;4.18;2.92;;;0.70;99.90;;;;;;5082434;27;20032;-39
2023/11/29 10:03:24;;;;;;;5.28;3.15;;;0.70;99.90;;;;;;5074815;28;20031;-38
2023/11/29 10:05:50;;;;;;;3.65;3.35;;;0.80;99.90;;;;;;5071790;28;20104;-39
2023/11/29 10:08:22;;;;;;;2.95;2.65;;;0.80;99.90;;;;;;5076037;28;20111;-34
2023/11/29 10:10:48;;;;;;;3.75;3.53;;;0.90;99.90;;;;;;5081913;28;20016;-32
2023/11/29 10:13:17;;;;;;;3.15;2.85;;;0.90;99.90;;;;;;5077503;28;20469;-33
2023/11/29 10:15:47;;;;;;;;;;;0.90;99.90;;;;;;5085362;28;20028;-32
2023/11/29 10:18:16;;;;;;;3.28;2.85;;;0.90;99.90;;;;;;5071714;28;19920;-32
2023/11/29 10:20:46;;;;;;;3.40;3.10;;;1.00;99.90;;;;;;5079312;28;20166;-32
2023/11/29 10:23:13;;;;;;;4.15;3.15;;;1.00;99.90;;;;;;5069668;28;20529;-31
2023/11/29 10:25:39;;;;;;;4.20;3.25;;;1.10;99.90;;;;;;5078338;28;20077;-32
2023/11/29 10:28:05;;;;;;;3.00;2.78;;;1.10;99.90;;;;;;5080747;28;20068;-32
2023/11/29 10:30:31;;;;;;;3.55;2.90;;;1.20;99.90;;;;;;5083040;27;20078;-33
2023/11/29 10:32:59;;;;;;;2.90;2.67;;;1.30;99.90;;;;;;5076633;28;20044;-33
2023/11/29 10:35:28;;;;;;;3.23;3.03;;;1.20;99.90;;;;;;5079541;28;20031;-31
2023/11/29 10:37:57;;;;;;;3.10;2.83;;;1.30;99.90;;;;;;5083929;28;20012;-32
2023/11/29 10:40:24;;;;;;;4.57;2.60;;;1.30;99.90;;;;;;5077987;28;20028;-32
2023/11/29 10:43:04;;;;;;;3.58;3.28;;;1.40;99.90;;;;;;5072211;28;20030;-31
2023/11/29 10:45:31;;;;;;;2.60;2.42;;;1.40;99.90;;;;;;5080293;28;20020;-34
2023/11/29 10:48:02;;;;;;;4.28;3.13;;;1.50;99.90;;;;;;5081456;28;20036;-31
2023/11/29 10:50:30;;;;;;;2.10;1.95;;;1.60;99.90;;;;;;5063813;28;20120;-32
2023/11/29 10:52:56;;;;;;;5.35;3.63;;;1.70;99.90;;;;;;5074485;28;20042;-35
2023/11/29 10:55:23;;;;;;;4.13;3.00;;;1.70;99.90;;;;;;5071612;28;20071;-33
2023/11/29 10:58:23;;;;;;;3.15;2.80;;;1.80;99.90;;;;;;5076858;28;20088;-33
2023/11/29 11:00:49;;;;;;;3.50;2.90;;;1.80;99.90;;;;;;5053496;28;20041;-33
2023/11/29 11:03:46;;;;;;;2.25;2.05;;;1.80;99.90;;;;;;5074377;28;20023;-34
2023/11/29 11:06:24;;;;;;;3.53;3.20;;;1.80;99.90;;;;;;5077974;28;20031;-32
2023/11/29 11:08:50;;;;;;;3.70;3.00;;;1.80;99.90;;;;;;5073861;28;20013;-42
2023/11/29 11:11:47;;;;;;;2.33;2.17;;;1.70;99.90;;;;;;5075799;28;20021;-36
2023/11/29 11:14:23;;;;;;;3.92;3.15;;;1.70;99.90;;;;;;5075846;28;20102;-42
2023/11/29 11:17:01;;;;;;;2.83;2.63;;;1.60;99.90;;;;;;5081798;28;20028;-40
2023/11/29 11:19:32;;;;;;;3.15;2.78;;;1.60;99.90;;;;;;5071139;28;20063;-36
2023/11/29 11:22:00;;;;;;;3.38;3.03;;;1.50;99.90;;;;;;5075771;28;20102;-39
2023/11/29 11:24:57;;;;;;;4.25;2.75;;;1.50;99.90;;;;;;5074763;28;20028;-38
2023/11/29 11:27:37;;;;;;;3.50;3.17;;;1.50;99.90;;;;;;5077153;28;20078;-41
2023/11/29 11:30:15;;;;;;;3.38;3.08;;;1.50;99.90;;;;;;5079036;28;20032;-37
2023/11/29 11:32:40;;;;;;;3.37;2.60;;;1.60;99.90;;;;;;5074515;28;20062;-40
2023/11/29 11:35:21;;;;;;;3.45;2.88;;;1.60;99.90;;;;;;5073122;28;20115;-40
2023/11/29 11:37:53;;;;;;;3.40;2.58;;;1.60;99.90;;;;;;5078886;28;20470;-40
2023/11/29 11:40:20;;;;;;;4.45;3.40;;;1.60;99.90;;;;;;5074649;28;20024;-38
2023/11/29 11:42:46;;;;;;;4.53;3.20;;;1.70;99.90;;;;;;5075881;28;20040;-42
2023/11/29 11:45:13;;;;;;;3.42;3.13;;;1.70;99.90;;;;;;5077346;28;20039;-40
2023/11/29 11:47:42;;;;;;;3.03;2.78;;;1.70;99.90;;;;;;5075813;28;20052;-42
2023/11/29 11:50:08;;;;;;;3.28;2.88;;;1.80;99.90;;;;;;5080689;28;20095;-40
2023/11/29 11:52:35;;;;;;;3.05;2.78;;;1.80;99.90;;;;;;5078805;28;20468;-40
2023/11/29 11:55:04;;;;;;;4.65;3.10;;;1.90;99.90;;;;;;5079630;28;20041;-41
2023/11/29 11:57:31;;;;;;;4.10;3.05;;;2.00;99.90;;;;;;5075966;28;20032;-33
2023/11/29 11:59:57;;;;;;;4.10;3.15;;;2.10;99.90;;;;;;5082161;28;20020;-40
2023/11/29 12:02:23;;;;;;;3.00;2.72;;;2.10;99.90;;;;;;5071154;28;20037;-38
2023/11/29 12:04:49;;;;;;;4.18;2.45;;;2.30;99.90;;;;;;5082405;28;20073;-41
2023/11/29 12:07:15;;;;;;;3.75;3.42;;;2.30;99.90;;;;;;5085077;28;20107;-42
2023/11/29 12:09:41;;;;;;;2.83;2.63;;;2.30;99.90;;;;;;5080206;28;20075;-41
2023/11/29 12:12:11;;;;;;;2.65;2.42;;;2.20;99.90;;;;;;5083256;28;20496;-40
2023/11/29 12:14:43;;;;;;;3.45;2.35;;;2.30;99.90;;;;;;5073628;28;20112;-41
2023/11/29 12:17:11;;;;;;;3.00;2.67;;;2.30;99.90;;;;;;5083478;28;20036;-30
2023/11/29 12:19:37;;;;;;;3.08;2.80;;;2.40;99.90;;;;;;5077193;28;20469;-30
2023/11/29 12:22:03;;;;;;;2.70;2.42;;;2.50;99.90;;;;;;5086128;28;20081;-34
2023/11/29 12:24:38;;;;;;;3.55;2.80;;;2.50;99.90;;;;;;5076647;28;20016;-31
2023/11/29 12:27:12;;;;;;;3.28;2.67;;;2.50;99.90;;;;;;5089325;28;20046;-30
2023/11/29 12:29:42;;;;;;;2.42;2.22;;;2.60;99.90;;;;;;5082811;28;20013;-30
2023/11/29 12:32:09;;;;;;;4.57;3.13;;;2.60;99.90;;;;;;5084040;27;20061;-30
2023/11/29 12:34:35;;;;;;;3.15;2.20;;;2.60;99.90;;;;;;5078561;28;20116;-31
2023/11/29 12:37:01;;;;;;;2.70;2.50;;;2.70;99.90;;;;;;5085381;28;20081;-30
2023/11/29 12:39:36;;;;;;;1.98;1.83;;;2.70;99.90;;;;;;5089894;28;20031;-30
2023/11/29 12:42:03;;;;;;;3.40;3.10;;;2.70;99.90;;;;;;5084197;28;20035;-31
2023/11/29 12:44:30;;;;;;;4.35;3.00;;;2.70;99.90;;;;;;5084494;28;20039;-36
2023/11/29 12:46:55;;;;;;;3.85;2.60;;;2.70;99.90;;;;;;5078615;28;20482;-30